createdAt,value
2022-08-26T00:01:53.695Z,59.21
2022-08-26T00:04:22.211Z,59.18
2022-08-26T00:06:51.516Z,59.60
2022-08-26T00:09:19.370Z,59.78
2022-08-26T00:11:47.391Z,59.59
2022-08-26T00:14:16.553Z,59.51
2022-08-26T00:16:49.000Z,59.77
2022-08-26T00:19:18.258Z,59.92
2022-08-26T00:21:46.357Z,60.18
2022-08-26T00:24:17.907Z,60.17
2022-08-26T00:26:45.936Z,60.36
2022-08-26T00:29:14.003Z,60.34
2022-08-26T00:31:45.140Z,60.82
2022-08-26T00:34:14.142Z,60.72
2022-08-26T00:36:43.158Z,60.59
2022-08-26T00:39:11.197Z,61.08
2022-08-26T00:41:41.691Z,61.02
2022-08-26T00:44:10.386Z,60.59
2022-08-26T00:46:46.622Z,60.55
2022-08-26T00:49:18.301Z,60.50
2022-08-26T00:51:50.710Z,59.63
2022-08-26T00:54:21.526Z,59.42
2022-08-26T00:56:55.646Z,59.73
2022-08-26T00:59:24.876Z,59.01
2022-08-26T01:01:53.287Z,59.18
2022-08-26T01:04:23.619Z,59.54
2022-08-26T01:06:55.081Z,59.64
2022-08-26T01:09:23.819Z,59.60
2022-08-26T01:11:58.097Z,60.38
2022-08-26T01:14:29.913Z,60.35
2022-08-26T01:16:57.720Z,60.77
2022-08-26T01:19:32.731Z,61.12
2022-08-26T01:22:02.942Z,61.38
2022-08-26T01:24:32.664Z,61.38
2022-08-26T01:27:05.076Z,60.95
2022-08-26T01:29:35.478Z,61.34
2022-08-26T01:32:05.278Z,61.45
2022-08-26T01:34:36.127Z,61.19
2022-08-26T01:37:07.416Z,61.42
2022-08-26T01:39:37.985Z,61.94
2022-08-26T01:42:11.537Z,62.26
2022-08-26T01:44:44.940Z,62.53
2022-08-26T01:47:16.052Z,62.83
2022-08-26T01:49:49.363Z,63.24
2022-08-26T01:52:27.611Z,63.60
2022-08-26T01:55:00.597Z,63.81
2022-08-26T01:57:29.499Z,64.04
2022-08-26T02:00:00.513Z,63.48
2022-08-26T02:02:28.921Z,63.47
2022-08-26T02:05:00.944Z,63.46
2022-08-26T02:07:29.743Z,63.31
2022-08-26T02:09:58.954Z,63.03
2022-08-26T02:12:28.362Z,63.20
2022-08-26T02:14:59.575Z,63.48
2022-08-26T02:17:38.284Z,63.31
2022-08-26T02:20:13.106Z,63.73
2022-08-26T02:22:45.096Z,64.10
2022-08-26T02:25:21.525Z,63.93
2022-08-26T02:27:51.044Z,63.77
2022-08-26T02:30:21.854Z,64.07
2022-08-26T02:32:51.756Z,64.92
2022-08-26T02:35:21.463Z,65.13
2022-08-26T02:37:49.628Z,65.33
2022-08-26T02:40:21.448Z,65.20
2022-08-26T02:42:49.867Z,65.94
2022-08-26T02:45:23.121Z,66.00
2022-08-26T02:47:51.817Z,66.45
2022-08-26T02:50:20.991Z,66.79
2022-08-26T02:52:49.333Z,67.00
2022-08-26T02:55:19.550Z,67.85
2022-08-26T02:57:47.270Z,68.35
2022-08-26T03:00:16.172Z,68.23
2022-08-26T03:02:43.893Z,68.82
2022-08-26T03:05:12.009Z,69.14
2022-08-26T03:07:40.311Z,69.40
2022-08-26T03:10:09.217Z,69.93
2022-08-26T03:12:38.326Z,70.00
2022-08-26T03:15:16.487Z,70.64
2022-08-26T03:17:47.407Z,71.16
2022-08-26T03:20:15.759Z,71.37
2022-08-26T03:22:45.298Z,71.48
2022-08-26T03:25:14.981Z,71.82
2022-08-26T03:27:44.499Z,71.86
2022-08-26T03:30:30.874Z,72.49
2022-08-26T03:32:58.807Z,72.68
2022-08-26T03:35:27.025Z,72.77
2022-08-26T03:37:55.439Z,72.41
2022-08-26T03:40:23.863Z,73.03
2022-08-26T03:42:58.561Z,73.32
2022-08-26T03:45:28.095Z,74.33
2022-08-26T03:47:56.011Z,74.71
2022-08-26T03:50:27.093Z,74.97
2022-08-26T03:52:56.006Z,75.53
2022-08-26T03:55:26.961Z,75.53
2022-08-26T03:57:55.401Z,76.02
2022-08-26T04:00:24.934Z,76.02
2022-08-26T04:02:53.721Z,76.27
2022-08-26T04:05:23.420Z,76.51
2022-08-26T04:07:51.267Z,76.89
2022-08-26T04:10:22.090Z,77.88
2022-08-26T04:12:56.617Z,77.98
2022-08-26T04:15:29.065Z,78.39
2022-08-26T04:17:57.493Z,78.22
2022-08-26T04:20:25.725Z,78.53
2022-08-26T04:22:53.833Z,78.36
2022-08-26T04:25:22.445Z,78.36
2022-08-26T04:27:51.967Z,78.34
2022-08-26T04:30:20.079Z,78.79
2022-08-26T04:32:50.444Z,78.53
2022-08-26T04:35:20.866Z,77.82
2022-08-26T04:37:53.334Z,78.10
2022-08-26T04:40:21.570Z,77.83
2022-08-26T04:42:50.344Z,77.32
2022-08-26T04:45:18.853Z,77.43
2022-08-26T04:47:56.313Z,77.48
2022-08-26T04:50:25.812Z,76.98
2022-08-26T04:52:55.302Z,76.77
2022-08-26T04:55:37.335Z,76.58
2022-08-26T04:58:10.245Z,76.03
2022-08-26T05:00:39.203Z,75.80
2022-08-26T05:03:10.253Z,76.02
2022-08-26T05:05:40.152Z,76.01
2022-08-26T05:08:08.337Z,75.81
2022-08-26T05:10:40.942Z,75.58
2022-08-26T05:13:11.188Z,75.40
2022-08-26T05:15:40.550Z,75.36
2022-08-26T05:18:10.478Z,75.16
2022-08-26T05:20:41.586Z,75.19
2022-08-26T05:23:09.978Z,75.18
2022-08-26T05:25:40.415Z,74.54
2022-08-26T05:28:08.320Z,74.70
2022-08-26T05:30:36.831Z,74.39
2022-08-26T05:33:15.043Z,74.56
2022-08-26T05:35:43.359Z,73.50
2022-08-26T05:39:10.809Z,73.39
2022-08-26T05:41:42.084Z,73.10
2022-08-26T05:44:20.998Z,72.42
2022-08-26T05:46:51.232Z,72.11
2022-08-26T05:49:51.864Z,71.86
2022-08-26T05:52:21.415Z,71.80
2022-08-26T05:54:53.471Z,70.56
2022-08-26T05:57:21.097Z,70.87
2022-08-26T05:59:51.145Z,70.55
2022-08-26T06:02:18.859Z,69.87
2022-08-26T06:04:47.390Z,70.53
2022-08-26T06:07:16.895Z,70.41
2022-08-26T06:09:47.514Z,69.72
2022-08-26T06:12:15.805Z,69.04
2022-08-26T06:14:46.353Z,68.66
2022-08-26T06:17:16.659Z,68.63
2022-08-26T06:19:45.464Z,68.78
2022-08-26T06:22:27.164Z,68.56
2022-08-26T06:25:13.577Z,68.16
2022-08-26T06:27:41.390Z,68.08
2022-08-26T06:30:10.400Z,68.17
2022-08-26T06:32:38.007Z,67.62
2022-08-26T06:35:06.218Z,67.56
2022-08-26T06:37:39.643Z,67.56
2022-08-26T06:40:11.525Z,67.09
2022-08-26T06:42:39.190Z,67.11
2022-08-26T06:45:07.160Z,66.42
2022-08-26T06:47:36.274Z,65.46
2022-08-26T06:50:03.881Z,65.24
2022-08-26T06:52:31.492Z,65.26
2022-08-26T06:54:59.007Z,65.21
2022-08-26T06:57:28.522Z,65.56
2022-08-26T06:59:59.226Z,65.55
2022-08-26T07:02:28.602Z,64.69
2022-08-26T07:04:56.799Z,64.14
2022-08-26T07:07:24.461Z,63.96
2022-08-26T07:09:52.733Z,63.83
2022-08-26T07:12:20.406Z,63.50
2022-08-26T07:14:49.505Z,63.79
2022-08-26T07:17:17.329Z,63.42
2022-08-26T07:19:48.615Z,62.33
2022-08-26T07:22:17.328Z,61.36
2022-08-26T07:24:44.964Z,61.33
2022-08-26T07:27:14.259Z,61.30
2022-08-26T07:29:43.462Z,61.32
2022-08-26T07:32:13.267Z,61.41
2022-08-26T07:34:41.814Z,61.17
2022-08-26T07:37:10.207Z,60.92
2022-08-26T07:39:37.900Z,61.48
2022-08-26T07:42:08.553Z,61.14
2022-08-26T07:44:36.320Z,60.62
2022-08-26T07:47:03.899Z,60.74
2022-08-26T07:49:48.349Z,61.24
2022-08-26T07:52:25.334Z,60.32
2022-08-26T07:54:54.165Z,59.51
2022-08-26T07:57:21.976Z,58.91
2022-08-26T07:59:52.235Z,58.45
2022-08-26T08:02:22.799Z,58.49
2022-08-26T08:04:52.283Z,57.59
2022-08-26T08:07:20.173Z,57.96
2022-08-26T08:09:49.416Z,57.86
2022-08-26T08:12:17.043Z,57.87
2022-08-26T08:14:46.856Z,58.25
2022-08-26T08:17:15.999Z,58.66
2022-08-26T08:19:43.652Z,58.75
2022-08-26T08:22:17.937Z,58.91
2022-08-26T08:24:49.944Z,59.10
2022-08-26T08:27:23.793Z,59.19
2022-08-26T08:29:54.149Z,59.07
2022-08-26T08:32:21.934Z,59.39
2022-08-26T08:34:49.413Z,58.94
2022-08-26T08:37:18.228Z,59.38
2022-08-26T08:39:45.721Z,59.44
2022-08-26T08:42:27.482Z,59.83
2022-08-26T08:44:58.806Z,60.33
2022-08-26T08:47:30.601Z,60.77
2022-08-26T08:50:01.109Z,60.86
2022-08-26T08:52:32.140Z,61.10
2022-08-26T08:54:59.734Z,60.62
2022-08-26T08:57:32.041Z,61.01
2022-08-26T09:00:04.381Z,60.08
2022-08-26T09:02:35.502Z,59.73
2022-08-26T09:05:10.183Z,59.43
2022-08-26T09:07:47.149Z,59.10
2022-08-26T09:10:22.299Z,59.07
2022-08-26T09:12:51.609Z,59.45
2022-08-26T09:15:21.524Z,58.58
2022-08-26T09:17:54.531Z,58.59
2022-08-26T09:20:30.643Z,58.21
2022-08-26T09:22:59.553Z,57.97
2022-08-26T09:25:27.272Z,57.81
2022-08-26T09:27:55.984Z,57.74
2022-08-26T09:30:26.356Z,57.46
2022-08-26T09:32:59.282Z,57.06
2022-08-26T09:35:28.816Z,57.63
2022-08-26T09:37:56.424Z,57.89
2022-08-26T09:40:27.914Z,58.04
2022-08-26T09:43:07.843Z,57.42
2022-08-26T09:45:35.801Z,56.57
2022-08-26T09:48:03.669Z,55.65
2022-08-26T09:50:33.774Z,55.10
2022-08-26T09:53:09.962Z,53.96
2022-08-26T09:55:42.999Z,51.45
2022-08-26T09:58:13.808Z,51.01
2022-08-26T10:00:42.171Z,49.81
2022-08-26T10:03:12.146Z,48.49
2022-08-26T10:05:45.743Z,48.69
2022-08-26T10:08:18.559Z,48.61
2022-08-26T10:10:48.909Z,49.68
2022-08-26T10:13:24.182Z,51.29
2022-08-26T10:15:56.086Z,51.14
2022-08-26T10:18:26.669Z,50.84
2022-08-26T10:21:02.619Z,51.00
2022-08-26T10:23:34.025Z,51.13
2022-08-26T10:26:05.560Z,51.77
2022-08-26T10:28:38.270Z,51.98
2022-08-26T10:31:10.203Z,52.65
2022-08-26T10:33:39.265Z,53.13
2022-08-26T10:36:32.270Z,53.45
2022-08-26T10:39:04.687Z,53.69
2022-08-26T10:41:37.287Z,53.79
2022-08-26T10:44:07.499Z,53.36
2022-08-26T10:46:39.622Z,53.23
2022-08-26T10:49:11.142Z,53.08
2022-08-26T10:51:42.248Z,53.31
2022-08-26T10:54:17.757Z,52.64
2022-08-26T10:56:49.465Z,52.67
2022-08-26T10:59:22.760Z,53.12
2022-08-26T11:01:54.894Z,53.47
2022-08-26T11:04:37.404Z,52.99
2022-08-26T11:07:23.911Z,52.79
2022-08-26T11:09:52.126Z,52.26
2022-08-26T11:12:38.494Z,51.83
2022-08-26T11:15:09.246Z,51.35
2022-08-26T11:17:56.858Z,51.88
2022-08-26T11:20:34.888Z,51.83
2022-08-26T11:23:17.282Z,51.83
2022-08-26T11:26:00.182Z,52.38
2022-08-26T11:28:33.518Z,52.04
2022-08-26T11:31:02.677Z,51.39
2022-08-26T11:33:59.468Z,51.66
2022-08-26T11:36:36.139Z,51.53
2022-08-26T11:39:05.151Z,50.62
2022-08-26T11:41:34.463Z,50.52
2022-08-26T11:44:05.484Z,48.92
2022-08-26T11:46:37.583Z,48.81
2022-08-26T11:49:06.429Z,47.88
2022-08-26T11:51:38.192Z,46.80
2022-08-26T11:54:12.314Z,46.49
2022-08-26T11:56:41.936Z,47.39
2022-08-26T12:02:13.853Z,49.21
2022-08-26T12:04:44.120Z,49.65
2022-08-26T12:07:12.738Z,50.33
2022-08-26T12:09:51.912Z,50.98
2022-08-26T12:12:24.303Z,51.27
2022-08-26T12:15:06.214Z,51.25
2022-08-26T12:17:35.154Z,50.58
2022-08-26T12:20:06.730Z,49.68
2022-08-26T12:22:35.942Z,49.50
2022-08-26T12:25:05.058Z,49.66
2022-08-26T12:27:33.565Z,50.16
2022-08-26T12:30:03.591Z,50.29
2022-08-26T12:32:36.286Z,49.96
2022-08-26T12:37:39.709Z,50.24
2022-08-26T12:40:28.874Z,49.76
2022-08-26T12:42:57.229Z,49.65
2022-08-26T12:45:28.494Z,49.00
2022-08-26T12:47:59.687Z,48.71
2022-08-26T12:50:29.542Z,48.85
2022-08-26T12:52:59.781Z,49.00
2022-08-26T12:55:35.509Z,49.15
2022-08-26T12:58:13.617Z,49.42
2022-08-26T13:00:42.068Z,48.38
2022-08-26T13:03:24.522Z,47.93
2022-08-26T13:05:54.133Z,48.36
2022-08-26T13:08:26.544Z,48.99
2022-08-26T13:11:03.053Z,50.09
2022-08-26T13:13:30.665Z,50.59
2022-08-26T13:15:58.911Z,50.04
2022-08-26T13:18:26.594Z,50.36
2022-08-26T13:20:55.509Z,50.28
2022-08-26T13:23:24.118Z,50.86
2022-08-26T13:25:52.623Z,51.58
2022-08-26T13:28:20.151Z,52.08
2022-08-26T13:30:49.649Z,52.96
2022-08-26T13:33:18.462Z,53.63
2022-08-26T13:35:46.172Z,54.03
2022-08-26T13:38:18.608Z,54.01
2022-08-26T13:41:02.704Z,54.09
2022-08-26T13:43:30.504Z,53.92
2022-08-26T13:45:58.010Z,53.81
2022-08-26T13:48:26.220Z,53.24
2022-08-26T13:50:53.834Z,52.63
2022-08-26T13:53:22.842Z,52.23
2022-08-26T13:55:50.472Z,52.03
2022-08-26T13:58:18.267Z,51.70
2022-08-26T14:00:45.925Z,51.51
2022-08-26T14:03:14.579Z,51.42
2022-08-26T14:05:42.108Z,50.91
2022-08-26T14:08:10.818Z,51.12
2022-08-26T14:10:39.803Z,50.73
2022-08-26T14:13:07.596Z,50.83
2022-08-26T14:15:35.852Z,50.90
2022-08-26T14:18:04.349Z,51.37
2022-08-26T14:20:34.763Z,51.13
2022-08-26T14:23:13.738Z,50.37
2022-08-26T14:25:43.396Z,50.40
2022-08-26T14:28:11.992Z,50.06
2022-08-26T14:30:40.929Z,50.47
2022-08-26T14:33:11.416Z,50.06
2022-08-26T14:35:41.427Z,50.11
2022-08-26T14:38:16.544Z,50.56
2022-08-26T14:40:46.066Z,50.88
2022-08-26T14:43:15.180Z,51.80
2022-08-26T14:45:43.884Z,52.50
2022-08-26T14:48:11.588Z,53.07
2022-08-26T14:50:39.127Z,53.42
2022-08-26T14:53:24.006Z,53.44
2022-08-26T14:55:52.881Z,53.48
2022-08-26T14:58:20.430Z,53.94
2022-08-26T15:00:50.753Z,53.96
2022-08-26T15:05:50.860Z,53.67
2022-08-26T15:08:18.512Z,54.28
2022-08-26T15:10:45.980Z,54.24
2022-08-26T15:13:14.913Z,54.40
2022-08-26T15:15:42.536Z,54.59
2022-08-26T15:18:10.352Z,55.10
2022-08-26T15:20:38.242Z,55.27
2022-08-26T15:23:07.353Z,54.90
2022-08-26T15:25:35.247Z,55.35
2022-08-26T15:28:02.965Z,54.72
2022-08-26T15:30:32.006Z,54.33
2022-08-26T15:32:59.548Z,54.45
2022-08-26T15:35:27.190Z,54.51
2022-08-26T15:37:54.802Z,54.53
2022-08-26T15:40:22.427Z,55.44
2022-08-26T15:42:57.487Z,55.45
2022-08-26T15:45:26.118Z,55.87
2022-08-26T15:48:11.147Z,55.85
2022-08-26T15:50:49.458Z,56.06
2022-08-26T15:53:17.360Z,56.03
2022-08-26T15:55:44.989Z,56.20
2022-08-26T15:58:12.489Z,56.93
2022-08-26T16:00:41.001Z,57.48
2022-08-26T16:03:09.912Z,57.51
2022-08-26T16:05:37.592Z,58.07
2022-08-26T16:08:06.282Z,58.42
2022-08-26T16:10:34.109Z,59.38
2022-08-26T16:13:01.890Z,59.69
2022-08-26T16:15:29.394Z,60.10
2022-08-26T16:17:59.713Z,60.65
2022-08-26T16:20:28.688Z,60.83
2022-08-26T16:22:56.297Z,60.78
2022-08-26T16:25:24.027Z,61.05
2022-08-26T16:27:52.384Z,61.05
2022-08-26T16:30:20.633Z,60.91
2022-08-26T16:32:48.654Z,60.57
2022-08-26T16:35:16.772Z,61.00
2022-08-26T16:37:45.780Z,61.03
2022-08-26T16:40:13.429Z,61.40
2022-08-26T16:42:40.986Z,61.62
2022-08-26T16:45:09.001Z,62.07
2022-08-26T16:47:36.607Z,61.98
2022-08-26T16:50:04.318Z,61.96
2022-08-26T16:52:31.918Z,62.33
2022-08-26T16:55:01.641Z,61.54
2022-08-26T16:57:29.250Z,61.96
2022-08-26T16:59:56.861Z,62.60
2022-08-26T17:02:24.490Z,62.46
2022-08-26T17:04:52.965Z,62.44
2022-08-26T17:07:20.534Z,62.34
2022-08-26T17:09:48.205Z,62.52
2022-08-26T17:12:17.318Z,62.62
2022-08-26T17:14:45.802Z,62.95
2022-08-26T17:17:13.446Z,62.42
2022-08-26T17:19:47.109Z,62.89
2022-08-26T17:22:15.362Z,62.63
2022-08-26T17:24:43.072Z,62.98
2022-08-26T17:27:10.780Z,63.04
2022-08-26T17:29:39.776Z,62.93
2022-08-26T17:32:07.408Z,62.85
2022-08-26T17:34:35.014Z,63.05
2022-08-26T17:37:02.724Z,63.26
2022-08-26T17:39:30.337Z,63.49
2022-08-26T17:41:57.945Z,63.53
2022-08-26T17:44:25.478Z,63.52
2022-08-26T17:46:54.735Z,63.82
2022-08-26T17:49:23.279Z,63.25
2022-08-26T17:51:50.991Z,63.07
2022-08-26T17:54:18.519Z,62.85
2022-08-26T17:56:46.111Z,62.95
2022-08-26T17:59:13.626Z,62.91
2022-08-26T18:01:41.220Z,63.21
2022-08-26T18:04:10.326Z,63.05
2022-08-26T18:06:39.239Z,62.73
2022-08-26T18:09:06.868Z,63.45
2022-08-26T18:11:34.455Z,62.85
2022-08-26T18:14:02.103Z,62.54
2022-08-26T18:16:34.107Z,62.55
2022-08-26T18:19:01.604Z,63.09
2022-08-26T18:21:30.528Z,63.25
2022-08-26T18:23:58.049Z,63.40
2022-08-26T18:26:28.041Z,63.43
2022-08-26T18:28:55.860Z,63.29
2022-08-26T18:31:23.410Z,63.51
2022-08-26T18:33:51.277Z,63.51
2022-08-26T18:36:19.786Z,63.97
2022-08-26T18:38:50.302Z,64.05
2022-08-26T18:41:19.211Z,64.26
2022-08-26T18:43:46.819Z,64.35
2022-08-26T18:46:14.485Z,64.02
2022-08-26T18:48:42.041Z,64.62
2022-08-26T18:51:12.499Z,64.04
2022-08-26T18:53:41.890Z,64.35
2022-08-26T18:56:11.666Z,64.33
2022-08-26T18:58:39.998Z,64.57
2022-08-26T19:01:07.858Z,64.43
2022-08-26T19:03:35.414Z,64.56
2022-08-26T19:06:02.917Z,65.31
2022-08-26T19:08:30.534Z,65.17
2022-08-26T19:10:58.155Z,65.28
2022-08-26T19:13:27.372Z,64.98
2022-08-26T19:15:55.361Z,65.24
2022-08-26T19:18:22.879Z,65.61
2022-08-26T19:20:50.483Z,65.63
2022-08-26T19:23:31.589Z,65.40
2022-08-26T19:26:00.224Z,65.60
2022-08-26T19:28:29.216Z,65.03
2022-08-26T19:30:56.922Z,65.46
2022-08-26T19:33:24.515Z,65.49
2022-08-26T19:35:52.548Z,65.90
2022-08-26T19:38:20.157Z,66.35
2022-08-26T19:40:47.984Z,66.28
2022-08-26T19:43:15.482Z,66.44
2022-08-26T19:45:45.746Z,66.03
2022-08-26T19:48:13.404Z,66.18
2022-08-26T19:50:42.220Z,66.49
2022-08-26T19:53:10.131Z,66.83
2022-08-26T19:55:37.641Z,67.21
2022-08-26T19:58:07.483Z,66.99
2022-08-26T20:00:36.659Z,67.70
2022-08-26T20:03:05.707Z,67.77
2022-08-26T20:05:33.383Z,67.49
2022-08-26T20:08:01.000Z,67.29
2022-08-26T20:10:28.906Z,67.71
2022-08-26T20:12:56.469Z,67.72
2022-08-26T20:15:24.125Z,68.09
2022-08-26T20:17:52.321Z,67.87
2022-08-26T20:20:38.671Z,68.36
2022-08-26T20:23:06.278Z,68.86
2022-08-26T20:25:34.370Z,69.28
2022-08-26T20:28:02.410Z,69.52
2022-08-26T20:30:30.001Z,69.63
2022-08-26T20:32:57.510Z,69.85
2022-08-26T20:35:26.497Z,70.20
2022-08-26T20:37:54.126Z,70.36
2022-08-26T20:40:22.534Z,70.61
2022-08-26T20:42:50.245Z,70.96
2022-08-26T20:45:17.890Z,70.71
2022-08-26T20:47:45.404Z,71.36
2022-08-26T20:50:12.999Z,71.05
2022-08-26T20:52:41.998Z,70.97
2022-08-26T20:55:10.540Z,71.41
2022-08-26T20:57:38.114Z,71.55
2022-08-26T21:00:06.322Z,71.62
2022-08-26T21:02:33.848Z,71.91
2022-08-26T21:05:01.693Z,71.68
2022-08-26T21:07:30.179Z,72.12
2022-08-26T21:09:59.441Z,71.97
2022-08-26T21:12:26.978Z,72.59
2022-08-26T21:14:54.944Z,73.02
2022-08-26T21:17:22.421Z,73.33
2022-08-26T21:19:49.933Z,73.72
2022-08-26T21:22:17.584Z,74.59
2022-08-26T21:24:45.137Z,75.23
2022-08-26T21:27:14.341Z,75.21
2022-08-26T21:29:49.065Z,76.25
2022-08-26T21:32:19.575Z,76.62
2022-08-26T21:34:47.175Z,77.49
2022-08-26T21:37:16.755Z,78.07
2022-08-26T21:39:44.616Z,78.34
2022-08-26T21:42:12.179Z,78.97
2022-08-26T21:44:41.085Z,79.64
2022-08-26T21:47:08.743Z,79.47
2022-08-26T21:49:36.440Z,79.49
2022-08-26T21:52:04.626Z,80.09
2022-08-26T21:54:32.368Z,79.84
2022-08-26T21:56:59.972Z,79.21
2022-08-26T21:59:27.583Z,80.05
2022-08-26T22:01:57.092Z,80.92
2022-08-26T22:04:24.826Z,80.14
2022-08-26T22:06:53.418Z,80.55
2022-08-26T22:09:23.053Z,81.09
2022-08-26T22:11:51.214Z,81.18
2022-08-26T22:14:20.850Z,81.47
2022-08-26T22:16:50.212Z,81.11
2022-08-26T22:19:20.985Z,80.96
2022-08-26T22:21:52.184Z,81.16
2022-08-26T22:24:21.178Z,81.17
2022-08-26T22:26:49.326Z,81.44
2022-08-26T22:29:17.115Z,81.28
2022-08-26T22:31:44.865Z,81.11
2022-08-26T22:34:15.137Z,81.43
2022-08-26T22:36:45.346Z,81.75
2022-08-26T22:39:13.722Z,81.84
2022-08-26T22:41:41.969Z,81.30
2022-08-26T22:44:10.284Z,81.33
2022-08-26T22:46:38.634Z,80.91
2022-08-26T22:49:08.273Z,80.73
2022-08-26T22:51:35.924Z,80.80
2022-08-26T22:54:04.866Z,80.68
2022-08-26T22:56:32.733Z,80.91
2022-08-26T22:59:00.310Z,80.40
2022-08-26T23:01:28.023Z,80.82
2022-08-26T23:03:55.666Z,81.01
2022-08-26T23:06:23.290Z,81.15
2022-08-26T23:08:50.853Z,80.69
2022-08-26T23:11:19.923Z,80.92
2022-08-26T23:13:47.514Z,80.60
2022-08-26T23:16:15.078Z,79.84
2022-08-26T23:18:42.830Z,80.77
2022-08-26T23:21:10.539Z,80.66
2022-08-26T23:23:38.326Z,80.39
2022-08-26T23:26:06.873Z,80.21
2022-08-26T23:28:35.927Z,80.63
2022-08-26T23:31:03.403Z,81.23
2022-08-26T23:33:44.863Z,81.04
2022-08-26T23:36:17.032Z,80.73
2022-08-26T23:38:45.387Z,80.37
2022-08-26T23:41:20.634Z,80.08
2022-08-26T23:43:49.800Z,80.77
2022-08-26T23:46:17.574Z,80.61
2022-08-26T23:48:45.494Z,80.18
2022-08-26T23:51:30.482Z,80.64
2022-08-26T23:53:58.593Z,80.00
2022-08-26T23:56:26.577Z,80.24
2022-08-26T23:58:56.113Z,80.38
